Portada
METAR-TAF:

METAR-TAF

Aeroports :

Gwadar, Pakistan

latitud: 25-13-59N, longitud: 062-19-46E, altitud: 29 m

METAR: manca

Hora: 06:22 (01:22 UTC)

Pronòstic

L'informe es va fer fa 3 hores i 52 minuts, a les 21:30 UTC
Pronòstic vàlid del 16 a les 00 UTC al 16 a les 24 UTC
Vent 10 kt del Sud/Sud-Oest amb ràfegues de 20 kt
Visibilitat: 4000 m
Núvols disperses a una alçada de 2500 ft
calitja
Temporalment
l' 16 a les 00 UTC al 16 a les 04 UTC
Vent 3 kt amb direcció variable
Visibilitat: 2000 m
Núvols disperses a una alçada de 2000 ft
boirina
A partir de les 16 a les 1800 UTC
Vent 10 kt del Sud-Oest
Visibilitat: 3000 m
Núvols disperses a una alçada de 2000 ft
calitja

TAF: OPGD 152130Z 1600/1624 21010G20KT 4000 HZ SCT025 TEMPO 1600/1604 VRB03KT 2000 BR SCT020 FM161800 23010KT 3000 HZ SCT020

Observacions i pronòstics meteorològics de més de 4000 aeroports (METAR i TAF).

Les estacions disponibles són els punts grocs i vermells al mapa.

Posi el ratolí al punt desitjat per veure el nom de l'estació.

Feu clic per veure les observacions i els pronòstics meteorològics.

Per canviar el mapa: feu clic els botons verds amb una creu de color negre per apropar; al botó verd amb un guió per allunyar la imatge; o en les fletxes verdes per a mapes adjacents.


METAR-TAF: